Terminal Aerodrome Forecast
Issued by NWS

Current Version | Previous Version | Graphics & Text | Print | Product List | Glossary On
Versions: 1 2 3 4 5 6 7 8 9 10 11 12 13 14 15 16 17 18 19 20 21 22 23 24 25 26 27 28 29 30 31 32 33 34 35 36
648
FTUS41 KRNK 201120
TAFLWB
TAF
KLWB 201120Z 2012/2112 18004KT 2SM BR SCT002 BKN040 WS020/23035KT
      TEMPO 2012/2014 1/2SM FG OVC002
     FM201500 23004KT 4SM BR SCT006
     FM201800 19006KT P6SM SCT025
     FM210100 17005KT P6SM FEW250
     FM210600 VRB03KT 2SM BR SCT006=

USA.gov is the U.S. government's official web portal to all federal, state and local government web resources and services.